Time;durP1;ratioP1;P1;durP2;ratioP2;P2;SDS_P1;SDS_P2;PMS_P1;PMS_P2;Temp;Humidity;BMP_temperature;BMP_pressure;BME280_temperature;BME280_humidity;BME280_pressure;Samples;Min_cycle;Max_cycle;Signal;HPM_P1;HPM_P2
2023/09/08 00:01:51;;;;;;;6.57;5.82;;;;;;;20.38;73.65;101583.59;5047268;28;20520;-52
2023/09/08 00:04:16;;;;;;;7.80;5.57;;;;;;;20.37;73.14;101581.91;5045698;28;20531;-51
2023/09/08 00:06:42;;;;;;;8.93;6.30;;;;;;;20.36;73.54;101584.78;5051158;28;20033;-51
2023/09/08 00:09:08;;;;;;;9.77;6.30;;;;;;;20.31;74.15;101585.25;5045478;28;20108;-51
2023/09/08 00:11:33;;;;;;;10.23;5.70;;;;;;;20.27;74.42;101589.31;5050226;28;20099;-51
2023/09/08 00:13:58;;;;;;;12.02;5.95;;;;;;;20.24;73.97;101592.34;5040662;28;20032;-53
2023/09/08 00:16:24;;;;;;;9.13;5.47;;;;;;;20.24;74.64;101589.63;5039553;28;20029;-51
2023/09/08 00:18:49;;;;;;;11.35;5.28;;;;;;;20.21;74.65;101598.03;5040147;28;20032;-52
2023/09/08 00:21:15;;;;;;;8.60;5.78;;;;;;;20.16;75.09;101593.13;5048275;28;20096;-51
2023/09/08 00:23:40;;;;;;;10.07;5.85;;;;;;;20.15;75.28;101599.53;5043166;28;20024;-53
2023/09/08 00:26:06;;;;;;;9.68;5.57;;;;;;;20.11;74.66;101598.16;5044766;28;20376;-53
2023/09/08 00:28:31;;;;;;;7.35;5.45;;;;;;;20.10;75.18;101604.56;5057385;28;20024;-51
2023/09/08 00:30:59;;;;;;;8.35;5.78;;;;;;;20.06;75.38;101592.41;5041719;28;20029;-51
2023/09/08 00:33:24;;;;;;;9.02;6.22;;;;;;;20.05;75.60;101593.41;5046264;28;20151;-51
2023/09/08 00:35:50;;;;;;;11.85;6.10;;;;;;;20.04;75.62;101594.44;5047828;28;20295;-51
2023/09/08 00:38:15;;;;;;;8.52;5.82;;;;;;;19.98;76.57;101598.59;5046989;28;20079;-52
2023/09/08 00:40:40;;;;;;;8.63;6.30;;;;;;;19.94;76.22;101594.56;5052612;28;20029;-53
2023/09/08 00:43:06;;;;;;;8.13;5.78;;;;;;;19.94;76.30;101599.94;5049677;28;20045;-53
2023/09/08 00:45:33;;;;;;;10.63;6.35;;;;;;;19.90;75.88;101599.44;5049093;28;20092;-51
2023/09/08 00:47:59;;;;;;;9.50;6.75;;;;;;;19.88;76.75;101592.50;5048232;28;20104;-52
2023/09/08 00:50:24;;;;;;;9.65;7.13;;;;;;;19.86;76.41;101594.50;5044147;28;20446;-52
2023/09/08 00:52:49;;;;;;;10.63;6.53;;;;;;;19.84;76.46;101593.84;5051065;28;20472;-52
2023/09/08 00:55:15;;;;;;;6.78;5.85;;;;;;;19.81;76.56;101599.53;5052114;28;20029;-52
2023/09/08 00:57:41;;;;;;;9.70;6.15;;;;;;;19.77;76.72;101590.94;5051894;28;20055;-51
2023/09/08 01:00:07;;;;;;;11.32;6.55;;;;;;;19.74;77.58;101593.91;5047634;28;20411;-52
2023/09/08 01:02:32;;;;;;;8.90;6.28;;;;;;;19.72;77.61;101594.06;5046079;28;20061;-54
2023/09/08 01:04:59;;;;;;;7.55;6.10;;;;;;;19.70;77.51;101587.13;5042669;28;20064;-53
2023/09/08 01:07:27;;;;;;;6.82;6.05;;;;;;;19.64;77.86;101582.41;5046511;28;20119;-54
2023/09/08 01:09:53;;;;;;;8.48;5.80;;;;;;;19.62;77.90;101581.69;5044101;28;20025;-55
2023/09/08 01:12:19;;;;;;;10.45;5.65;;;;;;;19.57;78.60;101585.72;5049193;28;20028;-54
2023/09/08 01:14:44;;;;;;;8.05;5.95;;;;;;;19.57;77.09;101591.13;5045052;28;20055;-52
2023/09/08 01:17:12;;;;;;;9.13;6.90;;;;;;;19.54;78.63;101588.72;5046072;28;20098;-51
2023/09/08 01:19:38;;;;;;;9.40;6.18;;;;;;;19.53;77.28;101583.50;5047271;28;20021;-52
2023/09/08 01:22:15;;;;;;;7.47;6.22;;;;;;;19.53;78.09;101594.28;5042092;28;20482;-52
2023/09/08 01:25:08;;;;;;;7.18;5.85;;;;;;;19.51;78.11;101596.28;5043990;28;20025;-52
2023/09/08 01:27:35;;;;;;;8.32;6.45;;;;;;;19.37;80.26;101595.84;5044441;28;20337;-51
2023/09/08 01:30:03;;;;;;;8.98;6.13;;;;;;;19.38;79.73;101591.31;5049151;28;20104;-51
2023/09/08 01:32:30;;;;;;;7.25;6.47;;;;;;;19.35;81.26;101605.94;5052568;28;20047;-51
2023/09/08 01:34:58;;;;;;;6.68;5.85;;;;;;;19.28;81.23;101601.34;5048433;28;20025;-51
2023/09/08 01:37:23;;;;;;;7.43;6.13;;;;;;;19.23;81.97;101596.41;5044083;28;20029;-51
2023/09/08 01:39:49;;;;;;;6.65;5.88;;;;;;;19.22;82.32;101592.88;5051580;28;20531;-51
2023/09/08 01:42:14;;;;;;;7.15;6.05;;;;;;;19.18;83.10;101602.25;5044177;28;20033;-51
2023/09/08 01:44:40;;;;;;;6.90;6.13;;;;;;;19.12;83.53;101597.50;5043767;28;20045;-51
2023/09/08 01:47:05;;;;;;;8.15;6.75;;;;;;;19.06;82.49;101598.13;5044064;28;20021;-51
2023/09/08 01:49:30;;;;;;;7.93;5.93;;;;;;;19.08;83.70;101597.97;5049681;28;20100;-53
2023/09/08 01:51:56;;;;;;;10.32;6.50;;;;;;;19.00;83.94;101594.22;5042154;28;20021;-52
2023/09/08 01:54:21;;;;;;;9.77;6.60;;;;;;;18.96;84.00;101587.44;5048340;28;20079;-51
2023/09/08 01:56:47;;;;;;;10.73;6.75;;;;;;;18.90;84.61;101582.69;5046265;28;20063;-51
2023/09/08 01:59:12;;;;;;;11.48;6.85;;;;;;;18.90;83.71;101590.78;5050393;28;20031;-52
2023/09/08 02:01:37;;;;;;;11.57;6.93;;;;;;;18.81;84.79;101578.19;5044064;28;20499;-52
2023/09/08 02:04:03;;;;;;;8.05;6.22;;;;;;;18.78;85.15;101583.88;5045577;28;20021;-52
2023/09/08 02:06:28;;;;;;;10.63;7.32;;;;;;;18.74;85.04;101583.34;5046424;28;20032;-51
2023/09/08 02:08:53;;;;;;;9.07;6.50;;;;;;;18.72;85.75;101589.84;5050418;28;20021;-51
2023/09/08 02:11:19;;;;;;;8.30;6.55;;;;;;;18.65;85.64;101579.72;5055427;28;20035;-52
2023/09/08 02:13:45;;;;;;;9.45;6.57;;;;;;;18.65;85.73;101587.81;5045717;28;20544;-51
2023/09/08 02:16:14;;;;;;;7.78;6.68;;;;;;;18.61;85.85;101599.84;5052150;28;20025;-51
2023/09/08 02:18:40;;;;;;;;;;;;;;;18.73;82.20;101588.88;5048187;28;20462;-52
2023/09/08 02:21:05;;;;;;;7.63;6.57;;;;;;;18.55;85.87;101586.16;5054872;28;19948;-52
2023/09/08 02:23:31;;;;;;;7.55;6.68;;;;;;;18.55;86.34;101587.03;5039939;28;20071;-53
2023/09/08 02:25:56;;;;;;;8.32;6.47;;;;;;;18.47;86.87;101579.69;5054584;28;20096;-51
2023/09/08 02:28:21;;;;;;;9.82;6.50;;;;;;;18.49;86.59;101579.56;5048366;28;20528;-52
2023/09/08 02:30:47;;;;;;;7.35;6.65;;;;;;;18.45;86.46;101583.53;5047030;28;20041;-51
2023/09/08 02:33:12;;;;;;;8.25;6.45;;;;;;;18.41;87.03;101587.53;5053419;28;20155;-52
2023/09/08 02:35:38;;;;;;;9.75;6.65;;;;;;;18.37;86.95;101575.38;5048304;28;20197;-52
2023/09/08 02:38:04;;;;;;;7.57;6.47;;;;;;;18.35;87.00;101571.97;5049211;28;20153;-51
2023/09/08 02:40:29;;;;;;;8.00;6.95;;;;;;;18.33;87.51;101580.19;5046833;28;20125;-51
2023/09/08 02:42:54;;;;;;;8.55;6.72;;;;;;;18.30;87.57;101578.69;5049577;28;20100;-51
2023/09/08 02:45:20;;;;;;;9.02;6.57;;;;;;;18.27;87.37;101572.75;5055423;28;20048;-51
2023/09/08 02:47:45;;;;;;;8.20;6.30;;;;;;;18.20;88.25;101577.88;5049241;28;20029;-51
2023/09/08 02:50:10;;;;;;;7.60;6.80;;;;;;;18.19;88.49;101580.72;5050065;28;20796;-51
2023/09/08 02:52:35;;;;;;;7.80;7.00;;;;;;;18.14;88.62;101583.84;5049916;28;20271;-51
2023/09/08 02:55:01;;;;;;;9.93;6.93;;;;;;;18.14;88.11;101586.53;5053469;28;20435;-52
2023/09/08 02:57:26;;;;;;;8.45;6.88;;;;;;;18.10;89.21;101582.44;5053948;28;20054;-51
2023/09/08 02:59:52;;;;;;;7.80;6.72;;;;;;;18.08;88.55;101582.59;5056098;28;20033;-52
2023/09/08 03:02:17;;;;;;;9.68;6.55;;;;;;;18.06;88.74;101573.84;5055455;28;20383;-52
2023/09/08 03:04:42;;;;;;;8.40;7.43;;;;;;;18.01;89.27;101580.66;5053279;28;20402;-51
2023/09/08 03:07:08;;;;;;;9.27;6.65;;;;;;;18.00;89.41;101578.97;5052119;28;20130;-51
2023/09/08 03:09:34;;;;;;;10.90;6.72;;;;;;;17.94;89.70;101581.25;5050653;28;20496;-53
2023/09/08 03:11:59;;;;;;;10.40;6.95;;;;;;;17.93;89.71;101578.72;5051649;28;20029;-52
2023/09/08 03:14:24;;;;;;;9.70;7.15;;;;;;;17.91;89.34;101575.31;5048398;28;20021;-51
2023/09/08 03:16:50;;;;;;;8.63;7.15;;;;;;;17.86;90.24;101581.09;5047007;28;20471;-51
2023/09/08 03:19:15;;;;;;;7.85;6.97;;;;;;;17.83;90.50;101584.06;5052945;28;20107;-52
2023/09/08 03:21:40;;;;;;;9.82;7.22;;;;;;;17.75;90.02;101582.16;5051561;28;20035;-52
2023/09/08 03:24:06;;;;;;;8.13;7.10;;;;;;;17.78;90.24;101581.00;5041658;28;20116;-53
2023/09/08 03:26:31;;;;;;;9.05;7.63;;;;;;;17.69;90.68;101573.81;5053439;28;20032;-52
2023/09/08 03:28:56;;;;;;;8.93;7.22;;;;;;;17.70;91.07;101579.06;5046423;28;20052;-52
2023/09/08 03:31:22;;;;;;;7.78;6.75;;;;;;;17.70;91.18;101581.75;5047781;28;20063;-51
2023/09/08 03:33:47;;;;;;;7.97;6.35;;;;;;;17.70;90.93;101572.81;5055964;28;20471;-52
2023/09/08 03:36:12;;;;;;;10.07;7.63;;;;;;;17.66;91.51;101572.25;5048914;28;20471;-51
2023/09/08 03:38:38;;;;;;;9.63;7.43;;;;;;;17.67;91.08;101570.41;5054310;28;20152;-51
2023/09/08 03:41:03;;;;;;;8.52;7.45;;;;;;;17.62;91.44;101572.69;5053751;28;20086;-51
2023/09/08 03:43:28;;;;;;;9.35;7.30;;;;;;;17.61;90.79;101573.72;5052464;28;20045;-51
2023/09/08 03:45:54;;;;;;;7.65;6.85;;;;;;;17.55;92.10;101562.56;5048920;28;20060;-51
2023/09/08 03:48:20;;;;;;;8.00;7.20;;;;;;;17.52;91.57;101562.84;5047317;28;20053;-51
2023/09/08 03:50:45;;;;;;;11.52;7.22;;;;;;;17.52;91.90;101570.03;5053490;28;20415;-51
2023/09/08 03:53:12;;;;;;;7.82;6.93;;;;;;;17.51;91.82;101560.31;5048926;28;20033;-51
2023/09/08 03:55:37;;;;;;;10.57;7.43;;;;;;;17.45;92.79;101567.09;5050935;28;20378;-51
2023/09/08 03:58:02;;;;;;;9.32;7.72;;;;;;;17.43;93.01;101568.22;5052713;28;20039;-51
2023/09/08 04:00:28;;;;;;;7.53;6.82;;;;;;;17.44;93.09;101562.72;5047663;28;20082;-51
2023/09/08 04:02:53;;;;;;;9.32;7.65;;;;;;;17.36;93.65;101557.22;5046536;28;20102;-51
2023/09/08 04:05:19;;;;;;;10.40;7.75;;;;;;;17.36;92.74;101555.38;5052015;28;20059;-52
2023/09/08 04:07:45;;;;;;;9.73;7.50;;;;;;;17.34;93.26;101562.75;5054937;28;20025;-51
2023/09/08 04:10:10;;;;;;;9.90;7.45;;;;;;;17.32;92.98;101554.00;5052149;28;20049;-51
2023/09/08 04:12:36;;;;;;;9.63;8.00;;;;;;;17.30;93.51;101563.16;5053036;28;20498;-52
2023/09/08 04:15:01;;;;;;;11.25;7.90;;;;;;;17.30;94.20;101555.09;5055155;28;20107;-51
2023/09/08 04:17:26;;;;;;;8.45;7.63;;;;;;;17.28;93.38;101560.63;5050325;28;20390;-51
2023/09/08 04:19:52;;;;;;;9.35;8.13;;;;;;;17.19;94.96;101554.28;5047389;28;20017;-51
2023/09/08 04:22:17;;;;;;;10.70;8.15;;;;;;;17.22;94.81;101558.53;5046322;28;20096;-51
2023/09/08 04:24:42;;;;;;;9.38;8.13;;;;;;;17.23;94.83;101554.00;5048226;28;20033;-50
2023/09/08 04:27:09;;;;;;;11.25;7.88;;;;;;;17.19;94.07;101558.81;5045887;28;20029;-52
2023/09/08 04:29:34;;;;;;;9.90;8.35;;;;;;;17.17;94.89;101558.13;5053400;28;20025;-51
2023/09/08 04:32:00;;;;;;;8.27;7.47;;;;;;;17.13;94.45;101554.84;5051099;28;20162;-51
2023/09/08 04:34:25;;;;;;;9.98;7.93;;;;;;;17.15;94.31;101547.53;5053123;28;20025;-52
2023/09/08 04:36:50;;;;;;;9.60;8.30;;;;;;;17.14;95.20;101551.19;5046091;28;20533;-52
2023/09/08 04:39:16;;;;;;;10.13;8.15;;;;;;;17.11;94.99;101548.78;5051891;28;20116;-51
2023/09/08 04:41:41;;;;;;;10.48;8.25;;;;;;;17.08;95.70;101556.28;5045923;28;20083;-51
2023/09/08 04:44:06;;;;;;;9.63;8.63;;;;;;;17.04;95.79;101550.34;5045342;28;20107;-51
2023/09/08 04:46:32;;;;;;;10.18;8.05;;;;;;;17.05;95.21;101549.34;5051176;28;20430;-51
2023/09/08 04:48:57;;;;;;;10.18;8.50;;;;;;;17.03;95.00;101551.34;5041993;28;20029;-51
2023/09/08 04:51:22;;;;;;;8.90;8.10;;;;;;;17.02;95.90;101555.03;5052358;28;20025;-53
2023/09/08 04:53:47;;;;;;;10.32;8.43;;;;;;;17.00;95.67;101557.84;5052910;28;20474;-51
2023/09/08 04:56:13;;;;;;;10.20;8.82;;;;;;;16.98;96.50;101557.13;5050544;28;20071;-52
2023/09/08 04:58:39;;;;;;;12.57;9.35;;;;;;;16.96;96.11;101559.09;5045873;28;20065;-52
2023/09/08 05:01:05;;;;;;;11.65;8.60;;;;;;;16.98;95.31;101564.34;5053471;28;20028;-52
2023/09/08 05:03:31;;;;;;;11.93;8.10;;;;;;;16.98;95.40;101564.34;5048117;28;20473;-51
2023/09/08 05:05:56;;;;;;;12.50;8.02;;;;;;;16.97;96.20;101570.69;5048640;28;20020;-51
2023/09/08 05:08:21;;;;;;;12.68;8.45;;;;;;;16.95;95.72;101568.16;5053476;28;20447;-51
2023/09/08 05:10:46;;;;;;;11.65;8.15;;;;;;;16.98;95.49;101565.16;5045507;28;20119;-51
2023/09/08 05:13:12;;;;;;;10.45;8.90;;;;;;;16.98;95.54;101567.84;5049799;28;20029;-51
2023/09/08 05:15:38;;;;;;;11.85;8.50;;;;;;;16.95;96.66;101568.16;5052643;28;20059;-51
2023/09/08 05:18:04;;;;;;;12.57;8.32;;;;;;;16.94;96.37;101571.81;5041920;28;20566;-51
2023/09/08 05:20:30;;;;;;;13.50;9.23;;;;;;;16.93;96.85;101567.44;5052046;28;20123;-51
2023/09/08 05:22:55;;;;;;;10.85;9.02;;;;;;;16.95;96.71;101570.84;5044778;28;20022;-51
2023/09/08 05:25:20;;;;;;;15.30;9.25;;;;;;;16.93;96.73;101570.13;5046571;28;20025;-54
2023/09/08 05:27:46;;;;;;;13.00;9.30;;;;;;;16.96;95.92;101567.16;5047427;28;20032;-52
2023/09/08 05:30:11;;;;;;;10.77;9.55;;;;;;;16.96;96.90;101564.47;5044398;28;20075;-51
2023/09/08 05:32:37;;;;;;;14.07;9.68;;;;;;;16.97;96.84;101565.31;5042128;28;20079;-52
2023/09/08 05:35:02;;;;;;;11.27;9.52;;;;;;;16.99;96.39;101572.25;5039212;28;20044;-51
2023/09/08 05:37:28;;;;;;;11.40;9.82;;;;;;;17.01;96.23;101574.78;5043412;28;20475;-54
2023/09/08 05:39:53;;;;;;;18.48;10.15;;;;;;;17.04;96.78;101579.00;5037789;28;20460;-52
2023/09/08 05:42:18;;;;;;;12.52;9.82;;;;;;;17.07;97.56;101578.72;5034698;28;20025;-54
2023/09/08 05:44:45;;;;;;;13.00;10.03;;;;;;;17.10;96.86;101584.69;5046043;28;20041;-54
2023/09/08 05:47:10;;;;;;;13.07;9.77;;;;;;;17.11;96.93;101581.00;5038692;28;20333;-53
2023/09/08 05:49:35;;;;;;;12.45;10.35;;;;;;;17.15;96.52;101581.56;5039979;28;20128;-53
2023/09/08 05:52:01;;;;;;;14.30;10.20;;;;;;;17.19;96.60;101585.66;5033998;28;20029;-51
2023/09/08 05:54:26;;;;;;;12.70;10.23;;;;;;;17.20;96.34;101580.16;5033242;28;20176;-50
2023/09/08 05:56:51;;;;;;;13.73;10.50;;;;;;;17.26;96.49;101584.09;5044834;28;20178;-51
2023/09/08 05:59:17;;;;;;;12.65;10.63;;;;;;;17.31;95.54;101581.81;5041082;28;20276;-51
2023/09/08 06:01:43;;;;;;;12.23;10.20;;;;;;;17.36;95.88;101571.50;5042263;28;20041;-51
2023/09/08 06:04:08;;;;;;;16.65;10.30;;;;;;;17.38;95.30;101584.78;5047034;28;20039;-51
2023/09/08 06:06:33;;;;;;;14.70;9.93;;;;;;;17.47;95.04;101583.06;5042070;28;20449;-54
2023/09/08 06:08:59;;;;;;;12.57;10.20;;;;;;;17.51;95.14;101576.41;5035658;28;20029;-52
2023/09/08 06:11:24;;;;;;;15.88;10.52;;;;;;;17.57;94.41;101584.75;5039518;28;20026;-52
2023/09/08 06:13:49;;;;;;;14.05;10.27;;;;;;;17.60;94.65;101590.81;5046832;28;20025;-53
2023/09/08 06:16:15;;;;;;;13.15;9.68;;;;;;;17.66;94.58;101590.22;5054483;28;20027;-51
2023/09/08 06:18:40;;;;;;;13.02;10.32;;;;;;;17.70;94.64;101595.19;5045866;28;20151;-54
2023/09/08 06:21:07;;;;;;;14.48;9.82;;;;;;;17.73;93.83;101586.78;5050570;28;20025;-51
2023/09/08 06:23:33;;;;;;;18.05;11.20;;;;;;;17.81;94.01;101598.66;5040496;28;20033;-51
2023/09/08 06:25:59;;;;;;;12.77;10.07;;;;;;;17.84;93.99;101599.22;5044938;28;20414;-51
2023/09/08 06:28:25;;;;;;;11.60;8.98;;;;;;;17.93;93.76;101597.53;5044696;28;20021;-52
2023/09/08 06:30:51;;;;;;;13.23;10.50;;;;;;;17.98;93.94;101595.22;5048516;28;20033;-52
2023/09/08 06:33:16;;;;;;;12.30;9.75;;;;;;;18.04;94.34;101597.34;5040038;28;20025;-51
2023/09/08 06:35:41;;;;;;;15.00;10.32;;;;;;;18.10;94.11;101602.13;5035539;28;20033;-52
2023/09/08 06:38:07;;;;;;;11.30;9.98;;;;;;;18.18;93.87;101601.38;5040611;28;20045;-54
2023/09/08 06:40:32;;;;;;;13.15;10.00;;;;;;;18.23;93.56;101599.06;5037952;28;20495;-54
2023/09/08 06:42:58;;;;;;;17.58;10.20;;;;;;;18.27;93.56;101600.50;5037676;28;20053;-52
2023/09/08 06:45:23;;;;;;;16.05;10.10;;;;;;;18.34;92.93;101598.03;5042138;28;20017;-53
2023/09/08 06:47:50;;;;;;;12.88;9.45;;;;;;;18.38;94.26;101599.41;5052303;28;20028;-52
2023/09/08 06:50:15;;;;;;;13.30;10.15;;;;;;;18.45;93.45;101599.66;5040290;28;20405;-52
2023/09/08 06:52:41;;;;;;;13.25;10.23;;;;;;;18.55;93.13;101602.28;5039165;28;20052;-52
2023/09/08 06:55:07;;;;;;;13.95;10.73;;;;;;;18.63;92.59;101603.22;5039996;28;20483;-53
2023/09/08 06:57:32;;;;;;;15.13;10.32;;;;;;;18.76;92.17;101604.72;5047293;28;20029;-54
2023/09/08 06:59:58;;;;;;;14.13;9.80;;;;;;;18.84;91.93;101610.22;5040764;28;20056;-51
2023/09/08 07:02:23;;;;;;;14.93;9.90;;;;;;;18.93;91.21;101606.59;5044573;28;20083;-51
2023/09/08 07:04:48;;;;;;;14.40;10.15;;;;;;;19.06;91.12;101608.06;5046615;28;20025;-54
2023/09/08 07:07:14;;;;;;;11.98;9.55;;;;;;;19.20;91.08;101605.66;5046134;28;20025;-53
2023/09/08 07:09:39;;;;;;;14.05;9.23;;;;;;;19.35;90.82;101607.78;5049595;28;20032;-51
2023/09/08 07:12:06;;;;;;;14.10;9.20;;;;;;;19.52;89.96;101604.22;5046672;28;20037;-51
2023/09/08 07:14:31;;;;;;;16.48;9.35;;;;;;;19.72;90.39;101607.53;5032046;28;20349;-52
2023/09/08 07:16:57;;;;;;;9.70;8.45;;;;;;;19.91;88.93;101605.66;5044758;28;20017;-52
2023/09/08 07:19:22;;;;;;;12.98;9.02;;;;;;;20.15;87.07;101613.00;5042000;28;20482;-53
2023/09/08 07:21:48;;;;;;;13.83;8.33;;;;;;;20.44;84.80;101612.63;5043534;28;20026;-53
2023/09/08 07:24:13;;;;;;;9.80;8.80;;;;;;;20.70;84.47;101614.44;5048442;28;20287;-53
2023/09/08 07:26:38;;;;;;;15.43;8.63;;;;;;;20.89;82.45;101607.88;5046329;28;20365;-52
2023/09/08 07:29:04;;;;;;;11.00;8.18;;;;;;;21.23;80.92;101618.53;5056625;28;20029;-51
2023/09/08 07:31:29;;;;;;;8.52;7.57;;;;;;;21.46;80.24;101617.81;5052779;28;20055;-53
2023/09/08 07:33:54;;;;;;;12.93;8.35;;;;;;;21.71;79.47;101615.13;5046109;28;20104;-52
2023/09/08 07:36:20;;;;;;;9.82;8.13;;;;;;;21.94;77.56;101613.38;5048805;28;20029;-52
2023/09/08 07:38:45;;;;;;;12.40;6.90;;;;;;;22.18;77.54;101617.00;5045564;28;20479;-54
2023/09/08 07:41:10;;;;;;;8.52;7.05;;;;;;;22.48;76.81;101612.69;5056353;28;20061;-53
2023/09/08 07:43:40;;;;;;;10.73;7.57;;;;;;;22.77;73.86;101621.97;5052593;28;20099;-54
2023/09/08 07:46:05;;;;;;;9.55;7.22;;;;;;;23.01;72.32;101610.09;5040010;28;20037;-53
2023/09/08 07:48:31;;;;;;;9.50;7.38;;;;;;;23.27;71.39;101617.06;5041768;28;20056;-55
2023/09/08 07:50:58;;;;;;;9.13;7.15;;;;;;;23.52;70.68;101620.38;5040572;28;20373;-51
2023/09/08 07:53:23;;;;;;;9.43;6.75;;;;;;;23.70;69.75;101620.03;5043262;28;20762;-55
2023/09/08 07:55:49;;;;;;;11.38;6.70;;;;;;;24.03;69.54;101616.97;5042077;28;20528;-53
2023/09/08 07:58:14;;;;;;;8.02;6.18;;;;;;;24.30;68.62;101609.22;5046284;28;20021;-52
2023/09/08 08:00:39;;;;;;;11.63;6.85;;;;;;;24.48;67.08;101608.78;5038643;28;20454;-52
2023/09/08 08:03:06;;;;;;;7.35;6.22;;;;;;;24.68;66.90;101606.31;5040464;28;20122;-50
2023/09/08 08:05:31;;;;;;;10.82;6.13;;;;;;;24.89;65.44;101602.78;5041527;28;20029;-51
2023/09/08 08:07:56;;;;;;;10.25;5.88;;;;;;;25.09;64.42;101600.25;5047320;28;20029;-51
2023/09/08 08:10:22;;;;;;;8.17;5.80;;;;;;;25.26;63.41;101598.06;5039208;28;20378;-51
2023/09/08 08:12:47;;;;;;;9.30;5.70;;;;;;;25.45;63.63;101600.16;5039535;28;20341;-52
2023/09/08 08:15:13;;;;;;;8.32;5.53;;;;;;;25.74;64.25;101600.13;5047409;28;20031;-52
2023/09/08 08:17:39;;;;;;;9.02;4.93;;;;;;;25.95;63.42;101608.25;5046770;28;20024;-51
2023/09/08 08:20:09;;;;;;;6.88;5.07;;;;;;;26.15;62.15;101605.63;5049754;28;20471;-51
2023/09/08 08:22:38;;;;;;;8.60;5.57;;;;;;;26.29;62.63;101606.50;5039602;28;20100;-51
2023/09/08 08:25:04;;;;;;;9.45;5.60;;;;;;;26.51;59.66;101615.41;5048914;28;20115;-51
2023/09/08 08:27:31;;;;;;;6.03;4.78;;;;;;;26.76;59.45;101607.53;5040946;28;20040;-51
2023/09/08 08:29:59;;;;;;;9.07;5.70;;;;;;;26.90;58.96;101619.28;5043418;28;20081;-52
2023/09/08 08:32:24;;;;;;;8.32;5.35;;;;;;;27.14;57.79;101609.66;5044557;28;20009;-51
2023/09/08 08:34:50;;;;;;;7.65;5.40;;;;;;;27.36;58.53;101611.38;5044036;28;20051;-51
2023/09/08 08:37:16;;;;;;;7.07;5.45;;;;;;;27.50;57.05;101605.69;5042374;28;20065;-51
2023/09/08 08:39:41;;;;;;;8.05;5.13;;;;;;;27.70;56.70;101613.00;5046068;28;20064;-50
2023/09/08 08:42:09;;;;;;;6.22;5.20;;;;;;;27.78;54.75;101609.19;5044633;28;20473;-49
2023/09/08 08:44:35;;;;;;;8.13;5.78;;;;;;;27.85;55.72;101610.03;5049965;28;20049;-49
2023/09/08 08:47:02;;;;;;;6.72;5.45;;;;;;;28.02;54.17;101610.44;5048765;28;20170;-48
2023/09/08 08:49:30;;;;;;;8.82;5.38;;;;;;;28.19;55.17;101608.88;5046400;28;20043;-52
2023/09/08 08:51:56;;;;;;;;;;;;;;;28.44;58.19;101610.88;5042679;28;20025;-50
2023/09/08 08:54:21;;;;;;;8.18;4.72;;;;;;;28.60;52.97;101604.09;5054286;28;19939;-49
2023/09/08 08:56:48;;;;;;;9.48;5.28;;;;;;;28.72;51.90;101599.59;5045439;28;20030;-49
2023/09/08 08:59:14;;;;;;;5.97;4.65;;;;;;;28.94;53.74;101596.50;5047527;28;20036;-49
2023/09/08 09:01:42;;;;;;;6.80;4.90;;;;;;;29.13;52.28;101601.00;5042987;28;20446;-50
2023/09/08 09:04:09;;;;;;;5.80;4.75;;;;;;;29.49;52.26;101595.84;5039198;28;20127;-49
2023/09/08 09:06:35;;;;;;;5.53;4.57;;;;;;;29.79;52.38;101595.97;5052906;28;20064;-51
2023/09/08 09:09:01;;;;;;;8.73;4.40;;;;;;;29.85;49.70;101599.72;5038275;28;20098;-50
2023/09/08 09:11:26;;;;;;;7.63;4.55;;;;;;;30.03;49.35;101599.72;5041809;28;20075;-50
2023/09/08 09:13:52;;;;;;;6.72;4.60;;;;;;;30.15;48.10;101598.97;5040916;28;20025;-50
2023/09/08 09:16:17;;;;;;;7.93;4.40;;;;;;;30.33;48.87;101593.44;5044129;28;20459;-51
2023/09/08 09:18:58;;;;;;;8.98;4.82;;;;;;;30.46;50.44;101591.59;5047834;28;20422;-50
2023/09/08 09:21:24;;;;;;;8.38;5.35;;;;;;;30.59;49.07;101597.75;5045953;28;20052;-50
2023/09/08 09:23:50;;;;;;;6.82;4.47;;;;;;;30.89;47.98;101594.13;5045437;28;20033;-50
2023/09/08 09:26:26;;;;;;;7.25;4.32;;;;;;;31.25;48.83;101597.78;5049733;28;20067;-50
2023/09/08 09:28:53;;;;;;;6.90;4.57;;;;;;;31.44;46.01;101597.66;5048409;28;20107;-50
2023/09/08 09:31:22;;;;;;;5.23;4.07;;;;;;;31.66;45.83;101587.78;5052378;28;20021;-50
2023/09/08 09:33:48;;;;;;;8.40;4.90;;;;;;;31.76;45.05;101589.91;5043335;28;20518;-50
2023/09/08 09:36:20;;;;;;;8.73;4.45;;;;;;;31.91;45.75;101589.41;5047617;28;20045;-50
2023/09/08 09:38:47;;;;;;;7.43;4.38;;;;;;;31.93;45.14;101592.75;5048335;28;20029;-50
2023/09/08 09:41:12;;;;;;;5.10;4.07;;;;;;;31.99;44.58;101596.44;5042456;28;20052;-50
2023/09/08 09:43:37;;;;;;;7.68;4.43;;;;;;;32.21;43.66;101591.97;5050928;28;20044;-50
2023/09/08 09:46:03;;;;;;;8.35;4.40;;;;;;;32.29;42.81;101585.25;5058918;28;20025;-50
2023/09/08 09:48:28;;;;;;;5.95;4.35;;;;;;;32.48;42.64;101587.81;5046615;28;20052;-50
2023/09/08 09:50:53;;;;;;;7.25;4.65;;;;;;;32.78;42.80;101584.81;5048884;28;20025;-51
2023/09/08 09:53:20;;;;;;;9.60;4.93;;;;;;;32.89;43.33;101580.28;5050294;28;20032;-50
2023/09/08 09:55:46;;;;;;;8.43;4.50;;;;;;;33.03;41.63;101586.31;5048892;28;20101;-50
2023/09/08 09:58:12;;;;;;;8.88;4.50;;;;;;;33.06;41.33;101580.28;5050292;28;20128;-51
2023/09/08 10:00:40;;;;;;;6.68;4.30;;;;;;;33.42;41.87;101589.97;5048246;28;20033;-51
2023/09/08 10:03:06;;;;;;;6.38;3.72;;;;;;;33.21;41.43;101580.59;5046596;28;20025;-51
2023/09/08 10:05:31;;;;;;;5.70;4.15;;;;;;;33.54;39.98;101587.94;5049473;28;20506;-50
2023/09/08 10:07:58;;;;;;;6.15;4.30;;;;;;;33.49;40.52;101587.03;5051338;28;20033;-51
2023/09/08 10:10:26;;;;;;;6.97;4.38;;;;;;;33.78;41.89;101581.41;5051248;28;20112;-50
2023/09/08 10:12:53;;;;;;;;;;;;;;;34.19;43.67;101587.41;5046437;28;20044;-50
2023/09/08 10:15:22;;;;;;;6.85;4.20;;;;;;;33.91;40.06;101587.34;5050770;28;19912;-50
2023/09/08 10:17:53;;;;;;;6.75;4.20;;;;;;;33.92;39.40;101580.78;5050631;28;20051;-51
2023/09/08 10:20:21;;;;;;;9.45;4.30;;;;;;;33.77;39.25;101579.72;5048737;28;20469;-50
2023/09/08 10:22:52;;;;;;;6.63;4.17;;;;;;;33.95;39.82;101584.91;5042118;28;20033;-50
2023/09/08 10:25:20;;;;;;;5.10;4.57;;;;;;;34.03;39.77;101576.19;5048478;28;20424;-51
2023/09/08 10:27:46;;;;;;;9.02;4.40;;;;;;;34.20;39.29;101583.56;5046048;28;20391;-50
2023/09/08 10:30:12;;;;;;;6.28;4.10;;;;;;;34.32;38.64;101583.44;5048155;28;20273;-53
2023/09/08 10:32:41;;;;;;;5.07;4.30;;;;;;;34.21;38.79;101582.50;5046393;28;20031;-51
2023/09/08 10:35:07;;;;;;;8.65;4.75;;;;;;;34.55;38.02;101580.34;5048658;28;20402;-50
2023/09/08 10:37:32;;;;;;;7.95;4.00;;;;;;;34.76;38.95;101584.19;5052325;28;20033;-50
2023/09/08 10:40:19;;;;;;;11.00;4.40;;;;;;;34.91;39.34;101577.97;5051042;28;20113;-50
2023/09/08 10:42:45;;;;;;;7.63;4.10;;;;;;;34.98;37.16;101580.50;5047468;28;20514;-50
2023/09/08 10:45:18;;;;;;;5.90;3.75;;;;;;;35.19;38.69;101574.03;5046503;28;20283;-51
2023/09/08 10:47:46;;;;;;;8.88;4.57;;;;;;;34.97;37.45;101576.06;5044681;28;20467;-50
2023/09/08 10:50:26;;;;;;;6.43;3.90;;;;;;;35.16;36.76;101571.78;5045169;28;20025;-50
2023/09/08 10:53:13;;;;;;;7.75;4.07;;;;;;;35.37;38.23;101572.78;5054759;28;20041;-50
2023/09/08 10:55:52;;;;;;;6.57;3.97;;;;;;;35.48;37.25;101576.44;5048609;28;20394;-50
2023/09/08 10:58:19;;;;;;;9.35;4.00;;;;;;;35.58;37.19;101573.72;5050790;28;20037;-50
2023/09/08 11:00:48;;;;;;;6.40;4.20;;;;;;;35.92;34.86;101575.28;5050974;28;20386;-50
2023/09/08 11:03:13;;;;;;;9.25;4.18;;;;;;;36.22;36.01;101568.19;5052349;28;20506;-50
2023/09/08 11:05:39;;;;;;;6.30;3.88;;;;;;;36.14;35.26;101566.78;5049748;28;20045;-50
2023/09/08 11:08:05;;;;;;;6.07;4.20;;;;;;;36.33;35.33;101564.38;5046515;28;20565;-50
2023/09/08 11:10:31;;;;;;;7.18;4.00;;;;;;;36.42;35.64;101565.50;5056312;28;20040;-50
2023/09/08 11:12:56;;;;;;;6.78;4.30;;;;;;;36.44;34.60;101567.97;5050862;28;20029;-51
2023/09/08 11:15:21;;;;;;;4.50;4.07;;;;;;;36.42;34.53;101567.41;5046494;28;20021;-50
2023/09/08 11:17:50;;;;;;;5.78;3.88;;;;;;;36.65;35.71;101554.97;5049123;28;20032;-50